createdAt,value
2023-05-14T00:01:56.063Z,79.22
2023-05-14T00:03:58.991Z,80.52
2023-05-14T00:06:02.137Z,79.96
2023-05-14T00:08:06.738Z,79.41
2023-05-14T00:10:10.602Z,79.15
2023-05-14T00:12:13.590Z,81.02
2023-05-14T00:14:16.596Z,80.32
2023-05-14T00:16:19.515Z,81.05
2023-05-14T00:18:22.457Z,80.17
2023-05-14T00:20:25.475Z,79.56
2023-05-14T00:22:28.692Z,80.23
2023-05-14T00:24:33.131Z,79.98
2023-05-14T00:26:36.089Z,79.43
2023-05-14T00:28:39.138Z,79.38
2023-05-14T00:30:42.207Z,80.76
2023-05-14T00:32:45.152Z,79.96
2023-05-14T00:34:48.157Z,81.48
2023-05-14T00:36:51.828Z,80.70
2023-05-14T00:38:54.931Z,81.52
2023-05-14T00:40:59.261Z,80.83
2023-05-14T00:43:02.389Z,80.91
2023-05-14T00:45:07.372Z,81.58
2023-05-14T00:47:10.303Z,80.64
2023-05-14T00:49:14.974Z,82.21
2023-05-14T00:51:19.381Z,82.41
2023-05-14T00:53:22.640Z,81.30
2023-05-14T00:55:25.960Z,82.64
2023-05-14T00:57:30.372Z,82.58
2023-05-14T00:59:33.349Z,81.86
2023-05-14T01:01:36.419Z,82.30
2023-05-14T01:03:39.614Z,82.14
2023-05-14T01:05:53.787Z,83.76
2023-05-14T01:08:05.709Z,83.56
2023-05-14T01:10:14.835Z,84.38
2023-05-14T01:12:22.748Z,82.99
2023-05-14T01:14:45.655Z,82.34
2023-05-14T01:16:50.700Z,82.08
2023-05-14T01:18:55.842Z,83.31
2023-05-14T01:20:58.695Z,82.84
2023-05-14T01:23:03.215Z,83.47
2023-05-14T01:25:07.546Z,82.37
2023-05-14T01:27:18.014Z,82.75
2023-05-14T01:29:23.459Z,81.73
2023-05-14T01:31:28.972Z,81.27
2023-05-14T01:33:34.085Z,82.54
2023-05-14T01:35:37.906Z,81.71
2023-05-14T01:37:42.907Z,82.81
2023-05-14T01:39:51.336Z,83.71
2023-05-14T01:41:55.662Z,84.02
2023-05-14T01:43:58.765Z,83.53
2023-05-14T01:46:01.972Z,82.78
2023-05-14T01:48:05.626Z,83.73
2023-05-14T01:50:09.152Z,83.04
2023-05-14T01:52:12.444Z,82.46
2023-05-14T01:54:15.462Z,82.77
2023-05-14T01:56:22.066Z,81.88
2023-05-14T01:58:25.135Z,81.15
2023-05-14T02:00:28.252Z,82.33
2023-05-14T02:02:31.164Z,82.40
2023-05-14T02:04:34.030Z,81.96
2023-05-14T02:06:37.240Z,81.49
2023-05-14T02:08:40.333Z,81.35
2023-05-14T02:10:43.300Z,81.29
2023-05-14T02:12:47.731Z,81.08
2023-05-14T02:14:50.894Z,81.78
2023-05-14T02:16:53.725Z,81.26
2023-05-14T02:18:56.788Z,81.13
2023-05-14T02:20:59.894Z,83.10
2023-05-14T02:23:02.997Z,83.79
2023-05-14T02:25:06.789Z,83.24
2023-05-14T02:27:09.785Z,84.07
2023-05-14T02:29:14.161Z,82.71
2023-05-14T02:31:19.677Z,82.96
2023-05-14T02:33:22.361Z,83.37
2023-05-14T02:35:25.461Z,82.86
2023-05-14T02:37:28.324Z,82.90
2023-05-14T02:39:31.356Z,83.42
2023-05-14T02:41:34.258Z,84.17
2023-05-14T02:43:37.226Z,83.00
2023-05-14T02:45:41.672Z,83.96
2023-05-14T02:47:44.706Z,83.40
2023-05-14T02:49:47.661Z,82.53
2023-05-14T02:51:50.665Z,82.81
2023-05-14T02:53:53.694Z,82.78
2023-05-14T02:55:56.681Z,82.11
2023-05-14T02:57:59.862Z,81.70
2023-05-14T03:00:02.800Z,84.28
2023-05-14T03:02:09.451Z,83.49
2023-05-14T03:04:13.178Z,82.66
2023-05-14T03:06:16.081Z,83.92
2023-05-14T03:08:19.359Z,85.35
2023-05-14T03:10:22.386Z,84.23
2023-05-14T03:12:25.609Z,84.45
2023-05-14T03:14:28.489Z,84.28
2023-05-14T03:16:31.465Z,83.72
2023-05-14T03:18:37.000Z,82.78
2023-05-14T03:20:40.017Z,82.45
2023-05-14T03:22:43.175Z,82.45
2023-05-14T03:24:46.236Z,82.08
2023-05-14T03:26:49.475Z,82.55
2023-05-14T03:28:52.483Z,82.47
2023-05-14T03:30:55.395Z,81.97
2023-05-14T03:32:58.554Z,84.99
2023-05-14T03:35:02.886Z,85.36
2023-05-14T03:37:06.053Z,86.44
2023-05-14T03:39:09.865Z,86.01
2023-05-14T03:41:12.818Z,85.92
2023-05-14T03:43:16.613Z,87.57
2023-05-14T03:45:20.018Z,87.03
2023-05-14T03:47:22.918Z,86.25
2023-05-14T03:49:26.297Z,86.52
2023-05-14T03:51:32.127Z,86.70
2023-05-14T03:53:35.079Z,85.30
2023-05-14T03:55:37.998Z,85.14
2023-05-14T03:57:41.461Z,85.74
2023-05-14T03:59:44.398Z,85.42
2023-05-14T04:01:49.301Z,85.93
2023-05-14T04:03:52.454Z,85.55
2023-05-14T04:05:56.025Z,85.56
2023-05-14T04:08:00.506Z,84.87
2023-05-14T04:10:04.768Z,85.23
2023-05-14T04:12:10.742Z,84.18
2023-05-14T04:14:13.899Z,84.55
2023-05-14T04:16:17.096Z,85.23
2023-05-14T04:18:20.118Z,84.61
2023-05-14T04:20:25.024Z,85.22
2023-05-14T04:22:28.212Z,85.25
2023-05-14T04:24:32.679Z,84.90
2023-05-14T04:26:35.775Z,84.38
2023-05-14T04:28:38.721Z,83.88
2023-05-14T04:30:41.820Z,84.04
2023-05-14T04:32:44.768Z,83.68
2023-05-14T04:34:47.782Z,83.08
2023-05-14T04:36:51.785Z,83.43
2023-05-14T04:38:54.674Z,83.45
2023-05-14T04:40:58.973Z,82.64
2023-05-14T04:43:01.950Z,81.89
2023-05-14T04:45:05.684Z,81.51
2023-05-14T04:47:08.672Z,82.71
2023-05-14T04:49:11.981Z,81.69
2023-05-14T04:51:14.984Z,81.13
2023-05-14T04:53:17.933Z,82.24
2023-05-14T04:55:20.933Z,82.28
2023-05-14T04:57:25.373Z,83.25
2023-05-14T04:59:28.383Z,81.87
2023-05-14T05:01:31.351Z,82.09
2023-05-14T05:03:34.317Z,81.58
2023-05-14T05:05:37.260Z,82.57
2023-05-14T05:07:40.263Z,81.97
2023-05-14T05:09:44.278Z,82.70
2023-05-14T05:11:47.209Z,81.55
2023-05-14T05:13:51.548Z,80.39
2023-05-14T05:15:54.560Z,80.16
2023-05-14T05:17:57.402Z,79.00
2023-05-14T05:20:00.408Z,79.28
2023-05-14T05:22:03.559Z,81.02
2023-05-14T05:24:07.160Z,78.89
2023-05-14T05:26:10.077Z,79.06
2023-05-14T05:28:13.179Z,79.50
2023-05-14T05:30:17.595Z,78.46
2023-05-14T05:32:20.558Z,77.83
2023-05-14T05:34:23.624Z,77.13
2023-05-14T05:36:26.761Z,77.56
2023-05-14T05:38:29.643Z,76.10
2023-05-14T05:40:32.597Z,75.73
2023-05-14T05:42:35.610Z,75.52
2023-05-14T05:44:38.819Z,74.91
2023-05-14T05:46:43.196Z,74.80
2023-05-14T05:48:46.519Z,74.67
2023-05-14T05:50:50.678Z,73.89
2023-05-14T05:52:53.905Z,74.50
2023-05-14T05:54:56.847Z,73.19
2023-05-14T05:57:00.052Z,73.90
2023-05-14T05:59:04.357Z,72.02
2023-05-14T06:01:08.087Z,72.45
2023-05-14T06:03:13.063Z,71.34
2023-05-14T06:05:16.209Z,70.80
2023-05-14T06:07:19.480Z,69.76
2023-05-14T06:09:22.451Z,68.39
2023-05-14T06:11:25.398Z,67.96
2023-05-14T06:13:28.488Z,67.61
2023-05-14T06:15:31.567Z,66.00
2023-05-14T06:17:34.725Z,64.18
2023-05-14T06:19:39.189Z,63.48
2023-05-14T06:21:42.133Z,61.22
2023-05-14T06:23:45.261Z,63.43
2023-05-14T06:25:50.756Z,60.18
2023-05-14T06:27:53.460Z,61.49
2023-05-14T06:29:57.093Z,57.14
2023-05-14T06:32:02.593Z,55.03
2023-05-14T06:34:05.738Z,56.25
2023-05-14T06:36:10.880Z,56.11
2023-05-14T06:38:13.796Z,55.53
2023-05-14T06:40:17.178Z,54.72
2023-05-14T06:42:20.246Z,56.69
2023-05-14T06:44:23.777Z,55.96
2023-05-14T06:46:26.707Z,54.89
2023-05-14T06:48:29.966Z,55.62
2023-05-14T06:50:32.974Z,54.73
2023-05-14T06:52:37.670Z,56.59
2023-05-14T06:54:40.608Z,56.71
2023-05-14T06:56:43.453Z,54.26
2023-05-14T06:58:46.691Z,56.31
2023-05-14T07:00:49.685Z,55.01
2023-05-14T07:02:52.675Z,56.73
2023-05-14T07:04:56.296Z,53.57
2023-05-14T07:06:59.257Z,52.42
2023-05-14T07:09:03.880Z,49.45
2023-05-14T07:11:06.775Z,52.98
2023-05-14T07:13:09.927Z,53.36
2023-05-14T07:15:13.041Z,53.77
2023-05-14T07:17:16.014Z,52.53
2023-05-14T07:19:19.046Z,50.38
2023-05-14T07:21:22.033Z,50.83
2023-05-14T07:23:25.129Z,47.92
2023-05-14T07:25:29.573Z,50.80
2023-05-14T07:27:32.523Z,46.95
2023-05-14T07:29:35.484Z,48.79
2023-05-14T07:31:38.669Z,49.27
2023-05-14T07:33:41.640Z,47.81
2023-05-14T07:35:44.926Z,49.74
2023-05-14T07:37:47.956Z,48.33
2023-05-14T07:39:51.236Z,49.83
2023-05-14T07:41:55.939Z,48.15
2023-05-14T07:43:58.817Z,48.97
2023-05-14T07:46:01.697Z,46.85
2023-05-14T07:48:05.098Z,48.72
2023-05-14T07:50:09.235Z,48.40
2023-05-14T07:52:12.361Z,46.23
2023-05-14T07:54:15.333Z,45.26
2023-05-14T07:56:18.510Z,46.43
2023-05-14T07:58:23.838Z,48.03
2023-05-14T08:00:27.019Z,47.59
2023-05-14T08:02:30.155Z,46.39
2023-05-14T08:04:33.231Z,45.80
2023-05-14T08:06:36.352Z,46.83
2023-05-14T08:08:39.347Z,46.70
2023-05-14T08:10:42.207Z,46.33
2023-05-14T08:12:45.278Z,45.46
2023-05-14T08:14:49.598Z,46.31
2023-05-14T08:16:52.731Z,47.16
2023-05-14T08:18:56.128Z,45.40
2023-05-14T08:20:59.069Z,45.78
2023-05-14T08:23:02.124Z,46.25
2023-05-14T08:25:06.760Z,43.78
2023-05-14T08:27:10.010Z,41.90
2023-05-14T08:29:15.461Z,44.51
2023-05-14T08:31:20.810Z,45.79
2023-05-14T08:33:23.980Z,45.76
2023-05-14T08:35:26.902Z,44.87
2023-05-14T08:37:29.806Z,45.66
2023-05-14T08:39:32.658Z,43.35
2023-05-14T08:41:36.707Z,42.27
2023-05-14T08:43:46.492Z,44.35
2023-05-14T08:45:54.157Z,45.08
2023-05-14T08:48:00.169Z,45.06
2023-05-14T08:50:05.306Z,46.46
2023-05-14T08:52:09.085Z,42.88
2023-05-14T08:54:15.694Z,42.43
2023-05-14T08:56:19.737Z,41.07
2023-05-14T08:58:22.771Z,40.79
2023-05-14T09:00:26.970Z,42.26
2023-05-14T09:02:31.799Z,44.63
2023-05-14T09:04:37.361Z,42.66
2023-05-14T09:06:42.587Z,42.89
2023-05-14T09:08:46.666Z,42.78
2023-05-14T09:10:49.603Z,44.36
2023-05-14T09:12:52.473Z,43.28
2023-05-14T09:14:55.626Z,43.27
2023-05-14T09:16:58.727Z,41.15
2023-05-14T09:19:02.186Z,40.71
2023-05-14T09:21:08.659Z,40.79
2023-05-14T09:23:11.699Z,40.00
2023-05-14T09:25:14.566Z,41.19
2023-05-14T09:27:22.485Z,43.67
2023-05-14T09:29:26.328Z,41.42
2023-05-14T09:31:31.015Z,42.47
2023-05-14T09:33:34.099Z,41.69
2023-05-14T09:35:41.709Z,41.99
2023-05-14T09:37:47.918Z,42.90
2023-05-14T09:39:51.345Z,44.95
2023-05-14T09:41:54.538Z,41.53
2023-05-14T09:43:58.837Z,42.46
2023-05-14T09:46:01.685Z,43.02
2023-05-14T09:48:05.190Z,44.70
2023-05-14T09:50:09.718Z,45.26
2023-05-14T09:52:12.767Z,43.09
2023-05-14T09:54:17.277Z,42.34
2023-05-14T09:56:20.236Z,41.96
2023-05-14T09:58:23.075Z,44.26
2023-05-14T10:00:26.533Z,43.34
2023-05-14T10:02:38.090Z,43.11
2023-05-14T10:04:41.450Z,43.04
2023-05-14T10:06:47.910Z,43.12
2023-05-14T10:08:55.067Z,42.19
2023-05-14T10:10:59.972Z,41.72
2023-05-14T10:13:06.001Z,41.00
2023-05-14T10:15:16.872Z,40.45
2023-05-14T10:17:21.733Z,40.40
2023-05-14T10:19:25.937Z,39.88
2023-05-14T10:21:32.568Z,39.86
2023-05-14T10:23:41.045Z,40.38
2023-05-14T10:25:44.263Z,39.97
2023-05-14T10:27:49.096Z,41.87
2023-05-14T10:29:56.168Z,43.23
2023-05-14T10:31:59.075Z,41.53
2023-05-14T10:34:02.351Z,39.56
2023-05-14T10:36:08.489Z,41.41
2023-05-14T10:38:15.219Z,41.16
2023-05-14T10:40:19.580Z,39.94
2023-05-14T10:42:25.111Z,40.88
2023-05-14T10:44:30.335Z,39.18
2023-05-14T10:46:33.521Z,39.86
2023-05-14T10:48:38.025Z,41.17
2023-05-14T10:50:43.330Z,40.70
2023-05-14T10:52:46.670Z,41.17
2023-05-14T10:54:51.496Z,41.58
2023-05-14T10:56:54.614Z,42.55
2023-05-14T10:59:00.356Z,41.48
2023-05-14T11:01:06.907Z,40.70
2023-05-14T11:03:11.041Z,43.17
2023-05-14T11:05:16.187Z,43.35
2023-05-14T11:07:24.140Z,44.20
2023-05-14T11:09:27.451Z,42.02
2023-05-14T11:11:30.727Z,42.75
2023-05-14T11:13:34.867Z,42.13
2023-05-14T11:15:39.109Z,40.94
2023-05-14T11:17:44.819Z,41.51
2023-05-14T11:19:49.742Z,40.61
2023-05-14T11:21:53.837Z,44.52
2023-05-14T11:23:57.564Z,44.50
2023-05-14T11:26:00.422Z,42.01
2023-05-14T11:28:03.417Z,41.43
2023-05-14T11:30:12.675Z,41.29
2023-05-14T11:32:16.471Z,39.46
2023-05-14T11:34:21.979Z,41.66
2023-05-14T11:36:24.543Z,40.58
2023-05-14T11:38:27.441Z,40.99
2023-05-14T11:40:30.684Z,39.98
2023-05-14T11:42:33.700Z,40.47
2023-05-14T11:44:38.836Z,39.76
2023-05-14T11:46:41.779Z,39.21
2023-05-14T11:48:44.901Z,41.07
2023-05-14T11:50:51.496Z,40.25
2023-05-14T11:52:57.431Z,40.53
2023-05-14T11:55:00.549Z,40.23
2023-05-14T11:57:09.227Z,41.13
2023-05-14T11:59:12.668Z,40.66
2023-05-14T12:01:16.436Z,40.01
2023-05-14T12:03:26.157Z,40.04
2023-05-14T12:05:29.363Z,42.04
2023-05-14T12:07:33.863Z,36.54
2023-05-14T12:09:39.514Z,37.80
2023-05-14T12:11:42.014Z,37.37
2023-05-14T12:13:45.158Z,40.36
2023-05-14T12:15:49.030Z,37.96
2023-05-14T12:17:52.304Z,37.27
2023-05-14T12:19:57.655Z,37.67
2023-05-14T12:22:01.494Z,37.87
2023-05-14T12:24:09.774Z,37.21
2023-05-14T12:26:13.664Z,41.05
2023-05-14T12:28:16.755Z,40.49
2023-05-14T12:30:21.468Z,39.61
2023-05-14T12:32:26.746Z,40.57
2023-05-14T12:34:29.762Z,40.86
2023-05-14T12:36:33.032Z,40.69
2023-05-14T12:38:38.078Z,41.13
2023-05-14T12:40:42.455Z,39.07
2023-05-14T12:42:45.387Z,42.04
2023-05-14T12:44:48.441Z,40.64
2023-05-14T12:46:51.446Z,44.07
2023-05-14T12:48:54.760Z,41.28
2023-05-14T12:50:57.776Z,40.57
2023-05-14T12:53:00.699Z,41.29
2023-05-14T12:55:04.108Z,40.51
2023-05-14T12:57:08.676Z,41.45
2023-05-14T12:59:11.647Z,40.63
2023-05-14T13:01:14.786Z,41.19
2023-05-14T13:03:17.780Z,41.22
2023-05-14T13:05:20.825Z,40.86
2023-05-14T13:07:23.926Z,41.76
2023-05-14T13:09:28.497Z,41.73
2023-05-14T13:11:32.431Z,39.88
2023-05-14T13:13:37.230Z,43.06
2023-05-14T13:15:40.190Z,41.87
2023-05-14T13:17:43.050Z,40.43
2023-05-14T13:19:46.213Z,42.13
2023-05-14T13:21:49.131Z,41.32
2023-05-14T13:23:52.267Z,43.75
2023-05-14T13:25:55.125Z,43.39
2023-05-14T13:27:58.113Z,45.22
2023-05-14T13:30:02.501Z,42.37
2023-05-14T13:32:06.254Z,46.97
2023-05-14T13:34:10.553Z,46.24
2023-05-14T13:36:15.374Z,47.86
2023-05-14T13:38:18.253Z,46.31
2023-05-14T13:40:21.350Z,49.25
2023-05-14T13:42:24.296Z,39.96
2023-05-14T13:44:27.387Z,42.58
2023-05-14T13:46:31.733Z,43.95
2023-05-14T13:48:36.014Z,41.70
2023-05-14T13:50:38.854Z,43.80
2023-05-14T13:52:41.802Z,42.91
2023-05-14T13:54:44.725Z,42.78
2023-05-14T13:56:47.838Z,40.99
2023-05-14T13:58:50.724Z,42.94
2023-05-14T14:00:54.176Z,42.48
2023-05-14T14:02:58.631Z,40.82
2023-05-14T14:05:01.662Z,43.24
2023-05-14T14:07:05.138Z,41.12
2023-05-14T14:09:08.200Z,41.72
2023-05-14T14:11:11.123Z,41.22
2023-05-14T14:13:14.168Z,43.09
2023-05-14T14:15:17.031Z,43.00
2023-05-14T14:17:19.968Z,43.69
2023-05-14T14:19:24.326Z,43.43
2023-05-14T14:21:27.372Z,42.34
2023-05-14T14:23:30.457Z,43.91
2023-05-14T14:25:33.488Z,45.11
2023-05-14T14:27:39.087Z,45.36
2023-05-14T14:29:41.636Z,43.88
2023-05-14T14:31:44.853Z,46.23
2023-05-14T14:33:47.826Z,44.65
2023-05-14T14:35:52.257Z,45.85
2023-05-14T14:37:56.056Z,44.10
2023-05-14T14:39:58.956Z,48.28
2023-05-14T14:42:01.987Z,49.28
2023-05-14T14:44:05.901Z,49.50
2023-05-14T14:46:09.632Z,48.01
2023-05-14T14:48:29.156Z,48.71
2023-05-14T14:50:32.186Z,51.96
2023-05-14T14:52:36.963Z,49.49
2023-05-14T14:54:39.873Z,49.85
2023-05-14T14:56:43.808Z,49.75
2023-05-14T14:58:46.806Z,52.64
2023-05-14T15:00:51.567Z,51.70
2023-05-14T15:02:54.860Z,51.41
2023-05-14T15:04:57.806Z,48.98
2023-05-14T15:07:01.038Z,46.75
2023-05-14T15:09:05.660Z,51.22
2023-05-14T15:11:08.750Z,52.72
2023-05-14T15:13:12.717Z,52.17
2023-05-14T15:15:15.778Z,52.49
2023-05-14T15:17:18.642Z,50.70
2023-05-14T15:19:21.659Z,50.92
2023-05-14T15:21:24.764Z,53.76
2023-05-14T15:23:27.832Z,55.17
2023-05-14T15:25:32.255Z,58.34
2023-05-14T15:27:35.150Z,58.30
2023-05-14T15:29:38.088Z,59.01
2023-05-14T15:31:41.653Z,56.02
2023-05-14T15:33:44.479Z,56.57
2023-05-14T15:35:47.699Z,55.11
2023-05-14T15:37:50.648Z,54.76
2023-05-14T15:39:54.237Z,59.23
2023-05-14T15:41:58.668Z,57.12
2023-05-14T15:44:01.565Z,58.92
2023-05-14T15:46:04.417Z,57.88
2023-05-14T15:48:07.444Z,59.08
2023-05-14T15:50:10.446Z,58.30
2023-05-14T15:52:14.213Z,58.04
2023-05-14T15:54:17.117Z,57.42
2023-05-14T15:56:20.046Z,56.72
2023-05-14T15:58:24.507Z,56.32
2023-05-14T16:00:27.628Z,54.94
2023-05-14T16:02:30.835Z,55.19
2023-05-14T16:04:33.994Z,55.79
2023-05-14T16:06:36.938Z,55.15
2023-05-14T16:08:39.874Z,56.18
2023-05-14T16:10:42.696Z,57.08
2023-05-14T16:12:45.693Z,56.15
2023-05-14T16:14:50.611Z,60.76
2023-05-14T16:16:54.388Z,62.58
2023-05-14T16:18:57.478Z,60.91
2023-05-14T16:21:00.770Z,57.90
2023-05-14T16:23:03.636Z,57.02
2023-05-14T16:25:07.137Z,56.93
2023-05-14T16:27:10.038Z,59.76
2023-05-14T16:29:13.013Z,58.69
2023-05-14T16:31:17.378Z,56.60
2023-05-14T16:33:20.878Z,60.79
2023-05-14T16:35:24.095Z,62.00
2023-05-14T16:37:27.134Z,62.06
2023-05-14T16:39:30.320Z,63.36
2023-05-14T16:41:33.704Z,60.46
2023-05-14T16:43:36.622Z,62.42
2023-05-14T16:45:40.710Z,64.54
2023-05-14T16:47:45.375Z,65.86
2023-05-14T16:51:51.510Z,65.56
2023-05-14T16:53:55.644Z,67.60
2023-05-14T16:55:58.830Z,68.13
2023-05-14T16:58:01.760Z,68.03
2023-05-14T17:00:06.508Z,69.03
2023-05-14T17:02:09.628Z,67.36
2023-05-14T17:04:14.004Z,68.61
2023-05-14T17:06:17.055Z,67.57
2023-05-14T17:08:19.928Z,68.64
2023-05-14T17:10:24.205Z,69.39
2023-05-14T17:12:27.622Z,67.51
2023-05-14T17:14:30.713Z,68.44
2023-05-14T17:16:33.565Z,68.26
2023-05-14T17:18:36.486Z,67.67
2023-05-14T17:20:40.944Z,69.82
2023-05-14T17:22:43.903Z,70.26
2023-05-14T17:24:46.800Z,67.56
2023-05-14T17:26:49.980Z,68.51
2023-05-14T17:28:52.822Z,74.34
2023-05-14T17:30:55.676Z,72.03
2023-05-14T17:32:58.792Z,75.39
2023-05-14T17:35:01.964Z,76.42
2023-05-14T17:37:06.810Z,78.72
2023-05-14T17:39:09.792Z,79.14
2023-05-14T17:41:12.720Z,79.42
2023-05-14T17:43:15.819Z,79.17
2023-05-14T17:45:21.009Z,81.22
2023-05-14T17:47:24.060Z,80.78
2023-05-14T17:49:26.988Z,81.03
2023-05-14T17:51:30.142Z,82.66
2023-05-14T17:53:34.447Z,80.98
2023-05-14T17:55:43.810Z,79.46
2023-05-14T17:57:46.987Z,80.87
2023-05-14T17:59:49.935Z,81.79
2023-05-14T18:01:52.911Z,83.21
2023-05-14T18:03:55.871Z,82.66
2023-05-14T18:05:59.792Z,83.90
2023-05-14T18:08:02.826Z,83.78
2023-05-14T18:10:08.714Z,87.22
2023-05-14T18:12:11.646Z,87.12
2023-05-14T18:14:14.472Z,86.31
2023-05-14T18:16:17.564Z,87.01
2023-05-14T18:18:21.824Z,86.55
2023-05-14T18:20:24.764Z,84.94
2023-05-14T18:22:27.626Z,86.53
2023-05-14T18:24:30.612Z,85.68
2023-05-14T18:26:35.134Z,86.67
2023-05-14T18:28:38.278Z,86.78
2023-05-14T18:30:41.262Z,87.34
2023-05-14T18:32:45.311Z,87.11
2023-05-14T18:34:48.252Z,87.44
2023-05-14T18:36:51.402Z,86.63
2023-05-14T18:38:54.295Z,86.16
2023-05-14T18:40:57.237Z,85.40
2023-05-14T18:43:01.482Z,86.59
2023-05-14T18:45:05.100Z,87.48
2023-05-14T18:47:08.765Z,87.86
2023-05-14T18:49:12.124Z,86.72
2023-05-14T18:51:15.111Z,89.32
2023-05-14T18:53:18.046Z,87.52
2023-05-14T18:55:21.061Z,89.40
2023-05-14T18:57:24.305Z,88.54
2023-05-14T18:59:28.862Z,88.65
2023-05-14T19:01:31.874Z,89.57
2023-05-14T19:03:34.889Z,89.99
2023-05-14T19:05:38.191Z,89.82
2023-05-14T19:07:44.153Z,89.18
2023-05-14T19:09:47.256Z,88.78
2023-05-14T19:11:50.451Z,88.47
2023-05-14T19:13:53.720Z,88.84
2023-05-14T19:15:58.173Z,89.69
2023-05-14T19:18:01.700Z,89.09
2023-05-14T19:20:05.405Z,88.32
2023-05-14T19:22:08.591Z,88.39
2023-05-14T19:24:11.691Z,89.08
2023-05-14T19:26:14.660Z,90.44
2023-05-14T19:28:20.077Z,90.19
2023-05-14T19:30:23.717Z,90.02
2023-05-14T19:32:28.079Z,90.28
2023-05-14T19:34:31.366Z,90.38
2023-05-14T19:36:34.217Z,89.63
2023-05-14T19:38:37.810Z,90.03
2023-05-14T19:40:40.901Z,90.19
2023-05-14T19:42:44.520Z,90.06
2023-05-14T19:44:47.732Z,89.69
2023-05-14T19:46:51.535Z,88.68
2023-05-14T19:48:55.906Z,89.12
2023-05-14T19:50:58.955Z,89.80
2023-05-14T19:53:02.608Z,90.00
2023-05-14T19:55:06.228Z,89.81
2023-05-14T19:57:10.108Z,90.04
2023-05-14T19:59:13.287Z,90.93
2023-05-14T20:01:16.504Z,90.26
2023-05-14T20:03:19.611Z,89.86
2023-05-14T20:05:24.209Z,92.03
2023-05-14T20:07:27.902Z,92.28
2023-05-14T20:09:30.752Z,91.59
2023-05-14T20:11:33.785Z,91.80
2023-05-14T20:13:37.180Z,91.46
2023-05-14T20:15:40.239Z,92.23
2023-05-14T20:17:43.240Z,92.45
2023-05-14T20:19:46.662Z,91.76
2023-05-14T20:21:51.169Z,91.61
2023-05-14T20:23:54.121Z,91.29
2023-05-14T20:25:57.036Z,91.71
2023-05-14T20:28:02.687Z,91.88
2023-05-14T20:30:06.967Z,92.21
2023-05-14T20:32:10.338Z,91.53
2023-05-14T20:34:13.161Z,91.36
2023-05-14T20:36:16.463Z,91.91
2023-05-14T20:38:20.889Z,91.45
2023-05-14T20:40:24.535Z,91.83
2023-05-14T20:42:27.546Z,91.79
2023-05-14T20:44:30.507Z,92.18
2023-05-14T20:46:33.581Z,92.57
2023-05-14T20:48:36.729Z,92.21
2023-05-14T20:50:39.512Z,92.11
2023-05-14T20:52:42.557Z,91.58
2023-05-14T20:54:47.050Z,91.36
2023-05-14T20:56:50.009Z,91.91
2023-05-14T20:58:52.809Z,91.48
2023-05-14T21:00:55.844Z,91.22
2023-05-14T21:03:00.617Z,91.61
2023-05-14T21:05:04.313Z,91.87
2023-05-14T21:07:07.702Z,91.12
2023-05-14T21:09:11.139Z,92.09
2023-05-14T21:11:15.468Z,91.43
2023-05-14T21:13:18.439Z,91.91
2023-05-14T21:15:21.602Z,91.63
2023-05-14T21:17:24.725Z,91.66
2023-05-14T21:19:27.729Z,91.65
2023-05-14T21:21:30.640Z,91.43
2023-05-14T21:23:33.544Z,92.11
2023-05-14T21:25:36.789Z,91.40
2023-05-14T21:27:41.235Z,91.37
2023-05-14T21:29:46.562Z,91.36
2023-05-14T21:31:49.517Z,91.27
2023-05-14T21:33:52.493Z,91.28
2023-05-14T21:35:55.485Z,91.54
2023-05-14T21:37:58.628Z,91.37
2023-05-14T21:40:01.456Z,91.13
2023-05-14T21:42:05.127Z,91.46
2023-05-14T21:44:09.469Z,91.10
2023-05-14T21:46:12.716Z,91.02
2023-05-14T21:48:15.928Z,91.43
2023-05-14T21:50:19.329Z,91.63
2023-05-14T21:52:22.286Z,90.69
2023-05-14T21:54:25.279Z,91.31
2023-05-14T21:56:28.194Z,91.06
2023-05-14T21:58:31.077Z,92.13
2023-05-14T22:00:35.609Z,91.54
2023-05-14T22:02:38.572Z,91.92
2023-05-14T22:04:41.457Z,92.05
2023-05-14T22:06:44.758Z,91.98
2023-05-14T22:08:47.557Z,92.06
2023-05-14T22:10:50.650Z,92.03
2023-05-14T22:12:53.565Z,91.70
2023-05-14T22:14:56.438Z,91.52
2023-05-14T22:17:00.788Z,92.87
2023-05-14T22:19:05.350Z,92.48
2023-05-14T22:21:09.515Z,92.43
2023-05-14T22:23:12.401Z,91.98
2023-05-14T22:25:15.364Z,92.70
2023-05-14T22:27:18.312Z,92.15
2023-05-14T22:29:21.315Z,92.09
2023-05-14T22:31:24.320Z,91.89
2023-05-14T22:33:28.677Z,92.09
2023-05-14T22:35:31.577Z,92.44
2023-05-14T22:37:34.497Z,91.32
2023-05-14T22:39:37.712Z,92.27
2023-05-14T22:41:40.704Z,92.23
2023-05-14T22:43:43.760Z,91.77
2023-05-14T22:45:46.649Z,92.96
2023-05-14T22:47:49.609Z,92.80
2023-05-14T22:49:53.990Z,92.16
2023-05-14T22:51:57.077Z,92.31
2023-05-14T22:54:00.154Z,92.30
2023-05-14T22:56:03.577Z,92.39
2023-05-14T22:58:07.269Z,92.42
2023-05-14T23:00:11.474Z,92.27
2023-05-14T23:02:14.487Z,92.63
2023-05-14T23:04:17.542Z,92.66
2023-05-14T23:06:21.941Z,92.47
2023-05-14T23:08:25.141Z,92.84
2023-05-14T23:10:28.368Z,92.50
2023-05-14T23:12:31.371Z,92.82
2023-05-14T23:14:34.300Z,92.73
2023-05-14T23:16:37.241Z,92.34
2023-05-14T23:18:40.490Z,92.40
2023-05-14T23:20:44.054Z,92.55
2023-05-14T23:22:48.537Z,92.31
2023-05-14T23:24:51.637Z,92.10
2023-05-14T23:26:54.657Z,92.33
2023-05-14T23:28:57.619Z,92.77
2023-05-14T23:31:00.503Z,92.79
2023-05-14T23:33:03.523Z,92.77
2023-05-14T23:35:06.867Z,92.74
2023-05-14T23:37:09.976Z,92.98
2023-05-14T23:39:14.604Z,92.64
2023-05-14T23:41:17.579Z,92.52
2023-05-14T23:43:20.427Z,92.39
2023-05-14T23:45:23.579Z,92.37
2023-05-14T23:47:26.753Z,92.52
2023-05-14T23:49:29.704Z,92.53
2023-05-14T23:51:32.590Z,92.37
2023-05-14T23:53:35.667Z,92.90
2023-05-14T23:55:40.238Z,92.66
2023-05-14T23:57:43.155Z,92.69
2023-05-14T23:59:46.484Z,92.59
